Terminal Aerodrome Forecast
Issued by NWS

Home | Current Version | Previous Version | Text Only | Print | Product List | Glossary On
Versions: 1 2 3 4 5 6 7 8 9 10 11 12 13
459
FTUS45 KABQ 281738
TAFSAF
TAF
KSAF 281738Z 2818/2918 17010KT P6SM SKC
     FM282100 16010KT P6SM SCT090
     FM290100 13010KT P6SM VCSH BKN090
     FM290600 12008KT P6SM BKN090=

USA.gov is the U.S. government's official web portal to all federal, state and local government web resources and services.